Granville, Vermont
Current Conditions -  °F | °C
As of 11:55 PM on Wednesday 22 Oct 2014 (Local Time) from K6B0 Reporting Station
Overcast Overcast  
Wind Chill:   Ceiling: 2600
Heat Index:   Visibility: 10mi
Dew Point:   Wind: 10mph
Humidity: 84%   Direction: 350°N
Pressure: 30"   Gusts: NA
Location:  43.98°N, 72.85°W
Report Text: K6B0 230355Z AUTO 35009KT 10SM OVC026 09/07 A3000 RMK AO2 T00910066
Loading
Personal Weather Stations






























Interactive Weather Map
Tropical Storm Tracking
New forecast layout! Learn more

10-Day Weather Forecast

Advertisements
Track Severe Weather on mobile